createdAt,value
2023-08-29T00:01:24.801Z,3.47
2023-08-29T00:03:57.404Z,3.83
2023-08-29T00:06:25.627Z,3.35
2023-08-29T00:08:53.751Z,3.45
2023-08-29T00:11:22.496Z,3.30
2023-08-29T00:13:50.655Z,3.45
2023-08-29T00:16:19.077Z,3.45
2023-08-29T00:18:47.300Z,3.30
2023-08-29T00:21:16.841Z,2.97
2023-08-29T00:23:45.012Z,3.65
2023-08-29T00:26:13.088Z,3.22
2023-08-29T00:28:42.181Z,2.85
2023-08-29T00:31:10.342Z,3.38
2023-08-29T00:33:38.504Z,3.42
2023-08-29T00:36:06.798Z,3.58
2023-08-29T00:38:36.334Z,3.80
2023-08-29T00:41:05.099Z,4.65
2023-08-29T00:43:33.234Z,4.85
2023-08-29T00:46:01.512Z,4.53
2023-08-29T00:48:29.714Z,4.75
2023-08-29T00:50:57.908Z,5.47
2023-08-29T00:53:27.266Z,4.97
2023-08-29T00:55:57.226Z,6.00
2023-08-29T00:58:25.506Z,5.03
2023-08-29T01:00:53.976Z,4.97
2023-08-29T01:03:22.979Z,5.20
2023-08-29T01:05:51.175Z,5.18
2023-08-29T01:08:19.398Z,4.63
2023-08-29T01:10:59.086Z,4.45
2023-08-29T01:13:40.382Z,4.60
2023-08-29T01:16:11.697Z,4.28
2023-08-29T01:18:40.941Z,4.18
2023-08-29T01:21:31.616Z,3.45
2023-08-29T01:24:07.201Z,2.35
2023-08-29T01:26:37.207Z,2.17
2023-08-29T01:29:06.418Z,2.53
2023-08-29T01:31:35.512Z,2.85
2023-08-29T01:34:04.204Z,2.70
2023-08-29T01:36:40.506Z,2.85
2023-08-29T01:39:08.653Z,3.60
2023-08-29T01:41:38.448Z,3.75
2023-08-29T01:44:07.963Z,3.22
2023-08-29T01:46:38.085Z,4.05
2023-08-29T01:49:07.402Z,3.58
2023-08-29T01:51:35.597Z,4.03
2023-08-29T01:54:03.894Z,3.15
2023-08-29T01:56:34.191Z,3.45
2023-08-29T01:59:04.268Z,3.05
2023-08-29T02:01:32.581Z,3.08
2023-08-29T02:04:00.816Z,2.90
2023-08-29T02:06:29.026Z,2.90
2023-08-29T02:08:57.154Z,3.30
2023-08-29T02:11:25.277Z,5.32
2023-08-29T02:13:53.368Z,3.00
2023-08-29T02:16:22.877Z,3.35
2023-08-29T02:18:51.019Z,2.63
2023-08-29T02:21:19.166Z,3.10
2023-08-29T02:23:47.690Z,3.38
2023-08-29T02:26:15.832Z,3.03
2023-08-29T02:28:43.922Z,3.05
2023-08-29T02:31:12.600Z,2.58
2023-08-29T02:33:42.367Z,3.13
2023-08-29T02:36:10.516Z,2.67
2023-08-29T02:38:39.550Z,2.97
2023-08-29T02:41:08.550Z,2.95
2023-08-29T02:43:36.675Z,3.00
2023-08-29T02:46:04.880Z,3.30
2023-08-29T02:48:33.118Z,3.25
2023-08-29T02:51:02.649Z,3.38
2023-08-29T02:53:31.251Z,3.03
2023-08-29T02:55:59.738Z,3.40
2023-08-29T02:58:27.927Z,3.67
2023-08-29T03:00:58.479Z,3.08
2023-08-29T03:03:27.146Z,3.70
2023-08-29T03:05:59.412Z,2.97
2023-08-29T03:08:29.134Z,3.15
2023-08-29T03:10:57.359Z,2.55
2023-08-29T03:13:25.488Z,2.63
2023-08-29T03:15:53.665Z,2.80
2023-08-29T03:18:21.820Z,2.33
2023-08-29T03:20:50.082Z,2.40
2023-08-29T03:23:18.192Z,2.20
2023-08-29T03:25:48.700Z,2.38
2023-08-29T03:28:16.809Z,2.45
2023-08-29T03:30:45.348Z,2.00
2023-08-29T03:33:13.512Z,1.75
2023-08-29T03:35:41.724Z,2.28
2023-08-29T03:38:09.856Z,2.20
2023-08-29T03:40:38.068Z,2.17
2023-08-29T03:43:08.356Z,1.95
2023-08-29T03:45:36.533Z,2.30
2023-08-29T03:48:12.825Z,2.25
2023-08-29T03:50:47.664Z,1.90
2023-08-29T03:53:15.856Z,2.35
2023-08-29T03:55:44.049Z,2.90
2023-08-29T03:58:14.310Z,1.90
2023-08-29T04:00:43.409Z,1.67
2023-08-29T04:03:12.110Z,2.25
2023-08-29T04:05:40.740Z,2.13
2023-08-29T04:08:09.195Z,2.20
2023-08-29T04:10:39.942Z,1.50
2023-08-29T04:13:08.698Z,2.20
2023-08-29T04:15:38.998Z,1.88
2023-08-29T04:18:09.481Z,1.90
2023-08-29T04:20:38.460Z,2.00
2023-08-29T04:23:08.515Z,1.70
2023-08-29T04:25:37.435Z,1.90
2023-08-29T04:28:07.607Z,2.10
2023-08-29T04:30:37.751Z,2.03
2023-08-29T04:33:06.398Z,2.20
2023-08-29T04:35:35.575Z,2.40
2023-08-29T04:38:04.205Z,2.03
2023-08-29T04:40:32.601Z,2.20
2023-08-29T04:43:00.793Z,2.30
2023-08-29T04:45:29.244Z,3.38
2023-08-29T04:47:58.852Z,2.90
2023-08-29T04:50:27.402Z,2.20
2023-08-29T04:52:56.449Z,2.63
2023-08-29T04:55:24.856Z,2.58
2023-08-29T04:57:55.992Z,2.50
2023-08-29T05:00:24.366Z,2.25
2023-08-29T05:02:52.600Z,2.35
2023-08-29T05:05:22.247Z,2.97
2023-08-29T05:07:50.380Z,3.03
2023-08-29T05:10:18.665Z,3.17
2023-08-29T05:12:46.860Z,2.88
2023-08-29T05:15:15.930Z,2.22
2023-08-29T05:17:44.123Z,2.50
2023-08-29T05:20:13.864Z,2.45
2023-08-29T05:22:43.445Z,2.40
2023-08-29T05:25:11.571Z,1.98
2023-08-29T05:27:40.051Z,2.30
2023-08-29T05:30:09.417Z,2.20
2023-08-29T05:32:39.621Z,2.40
2023-08-29T05:35:09.216Z,2.50
2023-08-29T05:37:37.389Z,2.10
2023-08-29T05:40:09.827Z,2.15
2023-08-29T05:42:37.994Z,1.73
2023-08-29T05:45:06.906Z,2.10
2023-08-29T05:47:35.085Z,2.00
2023-08-29T05:50:03.305Z,1.90
2023-08-29T05:52:31.447Z,2.10
2023-08-29T05:54:59.694Z,2.08
2023-08-29T05:57:30.328Z,1.73
2023-08-29T05:59:58.768Z,2.22
2023-08-29T06:02:27.792Z,1.70
2023-08-29T06:04:56.040Z,1.40
2023-08-29T06:07:24.190Z,2.20
2023-08-29T06:09:52.408Z,2.03
2023-08-29T06:12:20.708Z,2.28
2023-08-29T06:14:50.305Z,1.88
2023-08-29T06:17:18.450Z,2.10
2023-08-29T06:19:46.584Z,2.20
2023-08-29T06:22:15.457Z,2.60
2023-08-29T06:24:43.715Z,1.92
2023-08-29T06:27:12.004Z,2.03
2023-08-29T06:29:40.161Z,3.15
2023-08-29T06:32:10.104Z,2.45
2023-08-29T06:34:38.242Z,2.30
2023-08-29T06:37:07.204Z,2.05
2023-08-29T06:39:35.390Z,2.10
2023-08-29T06:42:03.606Z,2.50
2023-08-29T06:44:32.543Z,2.35
2023-08-29T06:47:00.656Z,2.90
2023-08-29T06:49:30.284Z,2.70
2023-08-29T06:51:58.407Z,2.90
2023-08-29T06:54:27.281Z,3.15
2023-08-29T06:56:55.680Z,2.60
2023-08-29T06:59:23.882Z,2.88
2023-08-29T07:01:53.858Z,3.25
2023-08-29T07:04:22.314Z,2.85
2023-08-29T07:06:51.874Z,3.13
2023-08-29T07:09:20.195Z,3.80
2023-08-29T07:11:48.759Z,3.15
2023-08-29T07:14:16.887Z,2.83
2023-08-29T07:16:53.562Z,2.80
2023-08-29T07:19:32.379Z,2.95
2023-08-29T07:22:03.184Z,2.97
2023-08-29T07:24:32.003Z,3.15
2023-08-29T07:27:00.186Z,3.47
2023-08-29T07:29:28.251Z,3.15
2023-08-29T07:31:56.528Z,2.65
2023-08-29T07:34:24.731Z,3.13
2023-08-29T07:36:53.257Z,2.58
2023-08-29T07:39:23.054Z,2.65
2023-08-29T07:41:51.208Z,3.08
2023-08-29T07:44:19.345Z,2.20
2023-08-29T07:47:02.240Z,3.30
2023-08-29T07:49:35.742Z,2.50
2023-08-29T07:52:03.981Z,3.40
2023-08-29T07:54:33.785Z,2.88
2023-08-29T07:57:02.946Z,3.13
2023-08-29T07:59:31.144Z,2.97
2023-08-29T08:01:59.386Z,3.10
2023-08-29T08:04:27.652Z,3.00
2023-08-29T08:06:55.808Z,2.42
2023-08-29T08:09:23.976Z,2.75
2023-08-29T08:11:53.560Z,3.10
2023-08-29T08:14:21.741Z,3.10
2023-08-29T08:16:49.890Z,3.47
2023-08-29T08:19:18.078Z,2.72
2023-08-29T08:21:46.210Z,3.08
2023-08-29T08:24:14.381Z,2.50
2023-08-29T08:26:42.490Z,2.65
2023-08-29T08:29:12.067Z,2.70
2023-08-29T08:31:40.235Z,2.90
2023-08-29T08:34:08.455Z,2.63
2023-08-29T08:36:36.657Z,2.28
2023-08-29T08:39:05.579Z,2.72
2023-08-29T08:41:34.759Z,2.45
2023-08-29T08:44:07.603Z,2.67
2023-08-29T08:46:37.365Z,2.90
2023-08-29T08:49:06.065Z,2.55
2023-08-29T08:51:37.695Z,2.60
2023-08-29T08:54:08.128Z,2.88
2023-08-29T08:56:36.784Z,2.65
2023-08-29T08:59:05.956Z,3.10
2023-08-29T09:01:34.158Z,2.78
2023-08-29T09:04:04.503Z,2.83
2023-08-29T09:06:32.802Z,3.40
2023-08-29T09:09:20.096Z,3.78
2023-08-29T09:11:54.368Z,3.50
2023-08-29T09:14:22.849Z,3.90
2023-08-29T09:16:55.305Z,4.18
2023-08-29T09:19:25.386Z,3.40
2023-08-29T09:21:53.918Z,2.25
2023-08-29T09:24:25.758Z,2.53
2023-08-29T09:26:54.191Z,2.55
2023-08-29T09:29:23.915Z,2.30
2023-08-29T09:31:52.758Z,2.85
2023-08-29T09:34:32.661Z,2.65
2023-08-29T09:37:01.049Z,2.92
2023-08-29T09:39:29.503Z,2.58
2023-08-29T09:42:02.997Z,2.38
2023-08-29T09:44:31.852Z,2.33
2023-08-29T09:46:59.965Z,2.75
2023-08-29T09:49:42.701Z,2.50
2023-08-29T09:52:11.740Z,2.33
2023-08-29T09:54:46.317Z,3.08
2023-08-29T09:57:16.611Z,3.20
2023-08-29T09:59:46.164Z,3.72
2023-08-29T10:02:15.931Z,3.78
2023-08-29T10:04:48.351Z,3.35
2023-08-29T10:07:18.515Z,3.65
2023-08-29T10:09:46.970Z,3.55
2023-08-29T10:12:16.197Z,3.38
2023-08-29T10:14:45.497Z,3.13
2023-08-29T10:17:29.629Z,3.38
2023-08-29T10:20:05.856Z,3.88
2023-08-29T10:22:35.149Z,4.13
2023-08-29T10:25:05.285Z,3.90
2023-08-29T10:27:33.932Z,3.60
2023-08-29T10:30:03.009Z,4.45
2023-08-29T10:32:32.337Z,4.10
2023-08-29T10:35:01.915Z,4.45
2023-08-29T10:37:30.530Z,3.45
2023-08-29T10:40:12.846Z,4.30
2023-08-29T10:42:52.762Z,4.28
2023-08-29T10:45:22.825Z,3.85
2023-08-29T10:47:51.253Z,4.70
2023-08-29T10:50:26.283Z,4.43
2023-08-29T10:52:57.840Z,4.43
2023-08-29T10:55:29.312Z,4.53
2023-08-29T10:58:00.137Z,4.38
2023-08-29T11:00:36.133Z,4.78
2023-08-29T11:03:05.125Z,3.78
2023-08-29T11:05:35.181Z,4.28
2023-08-29T11:08:23.477Z,4.25
2023-08-29T11:11:15.996Z,3.75
2023-08-29T11:14:00.737Z,3.65
2023-08-29T11:16:29.767Z,3.63
2023-08-29T11:19:06.584Z,3.97
2023-08-29T11:21:36.218Z,3.15
2023-08-29T11:26:41.147Z,3.67
2023-08-29T11:29:09.772Z,3.78
2023-08-29T11:31:41.625Z,3.83
2023-08-29T11:34:18.891Z,3.58
2023-08-29T11:36:52.525Z,3.83
2023-08-29T11:39:22.988Z,3.47
2023-08-29T11:41:59.423Z,3.28
2023-08-29T11:45:35.411Z,3.95
2023-08-29T11:47:28.193Z,3.78
2023-08-29T11:49:57.264Z,3.10
2023-08-29T11:52:26.837Z,3.00
2023-08-29T11:54:55.253Z,3.42
2023-08-29T11:57:23.503Z,3.25
2023-08-29T11:59:54.250Z,2.90
2023-08-29T12:02:23.593Z,2.40
2023-08-29T12:04:56.866Z,2.60
2023-08-29T12:07:32.760Z,3.15
2023-08-29T12:10:08.774Z,3.13
2023-08-29T12:12:38.511Z,2.70
2023-08-29T12:15:08.063Z,2.60
2023-08-29T12:17:40.340Z,2.90
2023-08-29T12:20:31.185Z,3.22
2023-08-29T12:23:00.817Z,2.60
2023-08-29T12:25:29.040Z,2.85
2023-08-29T12:27:58.381Z,2.35
2023-08-29T12:30:27.469Z,2.85
2023-08-29T12:32:55.796Z,2.92
2023-08-29T12:35:24.204Z,2.65
2023-08-29T12:37:52.347Z,2.30
2023-08-29T12:40:21.996Z,2.30
2023-08-29T12:42:50.839Z,2.05
2023-08-29T12:45:20.206Z,2.38
2023-08-29T12:47:49.329Z,1.80
2023-08-29T12:50:18.366Z,2.13
2023-08-29T12:52:46.488Z,2.55
2023-08-29T12:55:15.516Z,2.20
2023-08-29T12:57:45.517Z,2.88
2023-08-29T13:00:14.782Z,2.25
2023-08-29T13:02:42.985Z,2.28
2023-08-29T13:05:11.419Z,2.60
2023-08-29T13:07:39.513Z,2.50
2023-08-29T13:10:08.422Z,2.42
2023-08-29T13:12:37.544Z,2.63
2023-08-29T13:15:12.391Z,3.20
2023-08-29T13:17:41.010Z,2.30
2023-08-29T13:20:10.290Z,2.08
2023-08-29T13:22:39.786Z,1.50
2023-08-29T13:25:08.697Z,1.80
2023-08-29T13:27:37.477Z,2.00
2023-08-29T13:30:08.283Z,1.80
2023-08-29T13:32:36.626Z,2.13
2023-08-29T13:35:05.886Z,2.00
2023-08-29T13:37:34.215Z,2.45
2023-08-29T13:40:04.924Z,2.40
2023-08-29T13:42:33.265Z,2.38
2023-08-29T13:45:02.312Z,2.53
2023-08-29T13:47:31.840Z,2.53
2023-08-29T13:50:00.161Z,2.70
2023-08-29T13:52:28.597Z,2.22
2023-08-29T13:54:56.858Z,3.00
2023-08-29T13:57:25.068Z,2.72
2023-08-29T13:59:53.553Z,2.45
2023-08-29T14:02:21.881Z,2.53
2023-08-29T14:04:51.456Z,2.40
2023-08-29T14:07:19.568Z,2.80
2023-08-29T14:09:47.780Z,2.03
2023-08-29T14:12:16.176Z,2.20
2023-08-29T14:14:44.460Z,2.45
2023-08-29T14:17:12.600Z,2.20
2023-08-29T14:19:40.772Z,2.58
2023-08-29T14:22:10.420Z,2.15
2023-08-29T14:24:38.618Z,2.20
2023-08-29T14:27:07.149Z,2.42
2023-08-29T14:29:35.512Z,1.77
2023-08-29T14:32:03.682Z,1.88
2023-08-29T14:34:31.809Z,1.83
2023-08-29T14:37:01.127Z,1.73
2023-08-29T14:39:30.651Z,1.55
2023-08-29T14:41:58.794Z,1.73
2023-08-29T14:44:26.930Z,1.88
2023-08-29T14:46:55.155Z,1.63
2023-08-29T14:49:23.408Z,1.83
2023-08-29T14:51:51.546Z,1.63
2023-08-29T14:54:19.813Z,1.63
2023-08-29T14:56:49.398Z,1.55
2023-08-29T14:59:17.525Z,1.40
2023-08-29T15:01:45.807Z,1.75
2023-08-29T15:04:15.372Z,1.60
2023-08-29T15:06:43.538Z,2.05
2023-08-29T15:09:12.287Z,1.70
2023-08-29T15:11:40.464Z,1.67
2023-08-29T15:14:10.038Z,1.85
2023-08-29T15:16:38.184Z,1.50
2023-08-29T15:19:06.895Z,1.85
2023-08-29T15:21:35.123Z,1.80
2023-08-29T15:24:04.030Z,1.63
2023-08-29T15:26:32.336Z,2.08
2023-08-29T15:29:00.463Z,1.50
2023-08-29T15:31:30.011Z,1.63
2023-08-29T15:33:58.183Z,1.05
2023-08-29T15:36:26.639Z,1.40
2023-08-29T15:38:55.002Z,1.40
2023-08-29T15:41:25.465Z,1.67
2023-08-29T15:43:53.953Z,1.67
2023-08-29T15:46:22.195Z,1.40
2023-08-29T15:48:51.859Z,1.70
2023-08-29T15:51:20.027Z,1.52
2023-08-29T15:53:48.308Z,1.83
2023-08-29T15:56:16.467Z,1.13
2023-08-29T15:58:44.639Z,1.60
2023-08-29T16:01:12.860Z,1.83
2023-08-29T16:03:41.200Z,1.48
2023-08-29T16:06:10.938Z,1.40
2023-08-29T16:08:39.228Z,0.80
2023-08-29T16:11:07.413Z,1.27
2023-08-29T16:13:35.582Z,1.00
2023-08-29T16:16:03.779Z,1.38
2023-08-29T16:18:31.996Z,1.48
2023-08-29T16:21:00.135Z,1.08
2023-08-29T16:23:29.671Z,1.20
2023-08-29T16:26:00.298Z,1.10
2023-08-29T16:28:30.774Z,1.27
2023-08-29T16:30:59.030Z,1.95
2023-08-29T16:33:27.181Z,1.25
2023-08-29T16:35:55.333Z,1.13
2023-08-29T16:38:23.514Z,1.13
2023-08-29T16:40:53.987Z,1.30
2023-08-29T16:43:22.394Z,1.25
2023-08-29T16:45:51.715Z,1.33
2023-08-29T16:48:20.092Z,1.30
2023-08-29T16:50:48.883Z,1.13
2023-08-29T16:53:17.186Z,1.20
2023-08-29T16:55:46.331Z,1.15
2023-08-29T16:58:16.133Z,1.52
2023-08-29T17:00:44.721Z,1.25
2023-08-29T17:03:12.967Z,1.33
2023-08-29T17:05:41.275Z,1.30
2023-08-29T17:08:09.820Z,1.77
2023-08-29T17:10:39.123Z,1.80
2023-08-29T17:13:07.291Z,1.55
2023-08-29T17:15:36.957Z,1.50
2023-08-29T17:18:06.340Z,1.50
2023-08-29T17:20:34.748Z,1.55
2023-08-29T17:23:02.943Z,1.70
2023-08-29T17:25:31.190Z,1.63
2023-08-29T17:27:59.875Z,1.42
2023-08-29T17:30:28.302Z,1.30
2023-08-29T17:32:57.949Z,1.48
2023-08-29T17:35:26.135Z,1.85
2023-08-29T17:37:54.284Z,1.58
2023-08-29T17:40:22.699Z,1.50
2023-08-29T17:42:50.821Z,1.60
2023-08-29T17:45:19.153Z,1.52
2023-08-29T17:47:47.363Z,1.80
2023-08-29T17:50:16.941Z,1.60
2023-08-29T17:52:46.016Z,1.70
2023-08-29T17:55:14.331Z,1.30
2023-08-29T17:57:42.603Z,1.50
2023-08-29T18:00:11.963Z,1.48
2023-08-29T18:02:40.248Z,1.42
2023-08-29T18:05:08.818Z,1.40
2023-08-29T18:07:38.507Z,2.13
2023-08-29T18:10:09.047Z,1.67
2023-08-29T18:12:38.608Z,1.70
2023-08-29T18:15:08.088Z,1.75
2023-08-29T18:17:36.797Z,1.88
2023-08-29T18:20:05.950Z,1.58
2023-08-29T18:22:35.375Z,1.90
2023-08-29T18:25:06.833Z,1.52
2023-08-29T18:27:35.048Z,1.55
2023-08-29T18:30:04.041Z,1.50
2023-08-29T18:32:33.174Z,1.40
2023-08-29T18:35:01.463Z,1.30
2023-08-29T18:37:29.628Z,1.40
2023-08-29T18:39:58.097Z,1.10
2023-08-29T18:42:27.695Z,1.33
2023-08-29T18:44:55.893Z,1.65
2023-08-29T18:47:24.037Z,1.35
2023-08-29T18:49:52.153Z,1.80
2023-08-29T18:52:20.993Z,1.55
2023-08-29T18:54:49.151Z,2.08
2023-08-29T18:57:17.615Z,1.90
2023-08-29T18:59:47.241Z,1.50
2023-08-29T19:02:15.367Z,1.67
2023-08-29T19:04:44.286Z,1.55
2023-08-29T19:07:12.532Z,1.63
2023-08-29T19:09:40.737Z,1.42
2023-08-29T19:12:09.120Z,1.33
2023-08-29T19:14:37.522Z,1.90
2023-08-29T19:17:08.956Z,1.45
2023-08-29T19:19:37.135Z,1.83
2023-08-29T19:22:05.715Z,1.20
2023-08-29T19:24:33.961Z,2.13
2023-08-29T19:27:03.130Z,1.60
2023-08-29T19:29:32.050Z,1.60
2023-08-29T19:32:00.208Z,1.98
2023-08-29T19:34:31.660Z,1.67
2023-08-29T19:36:59.880Z,2.05
2023-08-29T19:39:29.742Z,1.80
2023-08-29T19:41:59.612Z,1.70
2023-08-29T19:44:29.010Z,1.63
2023-08-29T19:46:57.244Z,1.67
2023-08-29T19:49:27.619Z,1.60
2023-08-29T19:51:57.236Z,1.95
2023-08-29T19:54:25.391Z,1.67
2023-08-29T19:56:54.274Z,1.77
2023-08-29T19:59:22.459Z,1.50
2023-08-29T20:01:50.587Z,1.55
2023-08-29T20:04:18.709Z,1.95
2023-08-29T20:06:46.844Z,1.63
2023-08-29T20:09:16.982Z,2.08
2023-08-29T20:11:46.680Z,2.03
2023-08-29T20:14:15.175Z,2.08
2023-08-29T20:16:43.426Z,1.88
2023-08-29T20:19:11.900Z,1.98
2023-08-29T20:21:42.084Z,1.80
2023-08-29T20:24:10.305Z,1.73
2023-08-29T20:26:39.849Z,1.65
2023-08-29T20:29:09.112Z,1.60
2023-08-29T20:31:37.267Z,1.63
2023-08-29T20:34:05.415Z,2.97
2023-08-29T20:36:33.669Z,1.75
2023-08-29T20:39:01.902Z,1.70
2023-08-29T20:41:30.025Z,1.80
2023-08-29T20:43:59.571Z,1.80
2023-08-29T20:46:27.770Z,1.30
2023-08-29T20:48:55.910Z,1.50
2023-08-29T20:51:24.343Z,1.85
2023-08-29T20:53:52.419Z,1.85
2023-08-29T20:56:20.852Z,1.90
2023-08-29T20:58:48.980Z,1.48
2023-08-29T21:01:18.512Z,1.50
2023-08-29T21:03:46.702Z,2.10
2023-08-29T21:06:15.366Z,1.88
2023-08-29T21:08:43.541Z,1.92
2023-08-29T21:11:11.611Z,1.55
2023-08-29T21:13:39.748Z,1.73
2023-08-29T21:16:07.920Z,1.50
2023-08-29T21:18:37.551Z,1.30
2023-08-29T21:21:05.798Z,1.63
2023-08-29T21:23:34.871Z,1.55
2023-08-29T21:26:03.004Z,1.65
2023-08-29T21:28:31.972Z,1.70
2023-08-29T21:31:00.234Z,1.17
2023-08-29T21:33:28.404Z,1.77
2023-08-29T21:35:57.932Z,1.42
2023-08-29T21:38:26.076Z,1.70
2023-08-29T21:40:54.419Z,1.60
2023-08-29T21:43:24.595Z,1.63
2023-08-29T21:45:56.878Z,1.50
2023-08-29T21:48:25.963Z,1.70
2023-08-29T21:50:54.584Z,2.13
2023-08-29T21:53:24.665Z,1.60
2023-08-29T21:55:53.983Z,1.35
2023-08-29T21:58:22.269Z,1.50
2023-08-29T22:00:52.864Z,1.38
2023-08-29T22:03:23.267Z,1.77
2023-08-29T22:05:51.804Z,1.70
2023-08-29T22:08:21.064Z,1.77
2023-08-29T22:10:52.315Z,1.80
2023-08-29T22:13:20.549Z,1.50
2023-08-29T22:15:50.717Z,1.40
2023-08-29T22:18:19.088Z,2.08
2023-08-29T22:20:47.249Z,1.52
2023-08-29T22:23:15.367Z,1.85
2023-08-29T22:25:43.501Z,1.63
2023-08-29T22:28:13.104Z,1.98
2023-08-29T22:30:41.230Z,1.58
2023-08-29T22:33:09.943Z,1.70
2023-08-29T22:35:38.151Z,1.80
2023-08-29T22:38:06.748Z,1.63
2023-08-29T22:40:35.218Z,1.70
2023-08-29T22:43:03.350Z,1.67
2023-08-29T22:45:32.920Z,1.40
2023-08-29T22:48:01.140Z,1.70
2023-08-29T22:50:29.704Z,1.63
2023-08-29T22:52:57.852Z,1.50
2023-08-29T22:55:28.075Z,1.80
2023-08-29T22:57:56.193Z,2.00
2023-08-29T23:00:24.402Z,2.22
2023-08-29T23:02:54.102Z,1.80
2023-08-29T23:05:22.614Z,1.65
2023-08-29T23:07:50.754Z,1.77
2023-08-29T23:10:18.979Z,1.85
2023-08-29T23:12:48.984Z,1.80
2023-08-29T23:15:17.483Z,1.85
2023-08-29T23:17:46.772Z,1.80
2023-08-29T23:20:16.776Z,2.03
2023-08-29T23:22:44.896Z,1.80
2023-08-29T23:25:14.044Z,1.60
2023-08-29T23:27:42.145Z,1.83
2023-08-29T23:30:11.755Z,1.85
2023-08-29T23:32:40.776Z,2.00
2023-08-29T23:35:09.766Z,1.60
2023-08-29T23:37:40.691Z,1.60
2023-08-29T23:40:10.475Z,1.77
2023-08-29T23:42:38.701Z,1.95
2023-08-29T23:45:09.834Z,1.75
2023-08-29T23:47:38.529Z,1.67
2023-08-29T23:50:07.658Z,1.50
2023-08-29T23:52:35.782Z,1.80
2023-08-29T23:55:06.219Z,1.60
2023-08-29T23:57:34.447Z,2.10
